createdAt,value
2018-05-13T00:00:20.104Z,14.60
2018-05-13T00:02:47.877Z,14.60
2018-05-13T00:05:16.462Z,14.60
2018-05-13T00:07:44.200Z,14.50
2018-05-13T00:10:12.038Z,14.60
2018-05-13T00:12:39.781Z,14.50
2018-05-13T00:15:07.636Z,14.40
2018-05-13T00:17:35.420Z,14.30
2018-05-13T00:20:03.215Z,14.30
2018-05-13T00:22:31.896Z,14.40
2018-05-13T00:24:59.595Z,14.40
2018-05-13T00:27:27.355Z,14.40
2018-05-13T00:29:55.195Z,14.40
2018-05-13T00:32:22.975Z,14.40
2018-05-13T00:34:50.715Z,14.40
2018-05-13T00:37:18.563Z,14.20
2018-05-13T00:39:46.336Z,14.20
2018-05-13T00:42:14.096Z,14.20
2018-05-13T00:44:41.976Z,14.20
2018-05-13T00:47:09.816Z,14.20
2018-05-13T00:49:37.557Z,14.30
2018-05-13T00:52:05.422Z,14.20
2018-05-13T00:54:44.856Z,14.20
2018-05-13T00:57:12.695Z,14.10
2018-05-13T00:59:40.435Z,14.10
2018-05-13T01:02:08.283Z,14.10
2018-05-13T01:04:36.116Z,14.00
2018-05-13T01:07:03.915Z,14.10
2018-05-13T01:09:31.694Z,14.10
2018-05-13T01:11:59.816Z,14.10
2018-05-13T01:14:27.579Z,14.00
2018-05-13T01:16:55.355Z,14.00
2018-05-13T01:19:23.175Z,14.10
2018-05-13T01:21:50.935Z,14.10
2018-05-13T01:24:18.695Z,14.10
2018-05-13T01:26:46.562Z,14.10
2018-05-13T01:29:14.292Z,14.10
2018-05-13T01:31:42.096Z,14.10
2018-05-13T01:34:09.895Z,14.10
2018-05-13T01:36:37.595Z,14.10
2018-05-13T01:39:05.416Z,14.10
2018-05-13T01:41:33.295Z,14.10
2018-05-13T01:44:01.016Z,14.00
2018-05-13T01:46:28.814Z,14.00
2018-05-13T01:48:56.734Z,14.00
2018-05-13T01:51:24.475Z,14.00
2018-05-13T01:53:52.218Z,14.00
2018-05-13T01:56:19.996Z,13.90
2018-05-13T01:58:47.736Z,14.00
2018-05-13T02:01:15.506Z,14.00
2018-05-13T02:03:43.356Z,13.90
2018-05-13T02:06:11.096Z,13.90
2018-05-13T02:08:38.876Z,13.90
2018-05-13T02:11:06.723Z,13.90
2018-05-13T02:13:34.434Z,13.80
2018-05-13T02:16:02.155Z,13.80
2018-05-13T02:18:29.495Z,13.80
2018-05-13T02:20:56.773Z,13.80
2018-05-13T02:23:24.522Z,13.70
2018-05-13T02:25:52.715Z,13.70
2018-05-13T02:28:20.397Z,13.60
2018-05-13T02:30:48.156Z,13.60
2018-05-13T02:33:15.975Z,13.60
2018-05-13T02:35:43.736Z,13.50
2018-05-13T02:38:11.436Z,13.50
2018-05-13T02:40:39.276Z,13.40
2018-05-13T02:43:07.036Z,13.30
2018-05-13T02:45:34.795Z,13.10
2018-05-13T02:48:02.696Z,12.90
2018-05-13T02:50:30.416Z,12.80
2018-05-13T02:52:58.199Z,12.70
2018-05-13T02:55:26.015Z,12.70
2018-05-13T02:57:53.755Z,12.70
2018-05-13T03:00:21.472Z,12.60
2018-05-13T03:02:49.295Z,12.50
2018-05-13T03:05:18.557Z,12.40
2018-05-13T03:07:46.361Z,12.40
2018-05-13T03:10:14.255Z,12.40
2018-05-13T03:12:41.959Z,12.40
2018-05-13T03:15:09.695Z,12.40
2018-05-13T03:17:37.575Z,12.50
2018-05-13T03:20:05.377Z,12.40
2018-05-13T03:22:33.155Z,12.40
2018-05-13T03:25:01.021Z,12.30
2018-05-13T03:27:28.813Z,12.20
2018-05-13T03:29:56.715Z,12.20
2018-05-13T03:32:24.519Z,12.30
2018-05-13T03:34:53.455Z,12.30
2018-05-13T03:37:21.235Z,12.40
2018-05-13T03:39:49.075Z,12.50
2018-05-13T03:42:16.775Z,12.50
2018-05-13T03:44:44.517Z,12.40
2018-05-13T03:47:12.355Z,12.30
2018-05-13T03:49:40.122Z,12.40
2018-05-13T03:52:07.854Z,12.40
2018-05-13T03:54:35.692Z,12.50
2018-05-13T03:57:03.475Z,12.60
2018-05-13T03:59:31.177Z,12.70
2018-05-13T04:01:59.009Z,13.30
2018-05-13T04:04:26.780Z,14.10
2018-05-13T04:06:55.280Z,16.00
2018-05-13T04:09:34.755Z,16.00
2018-05-13T04:12:14.177Z,16.40
2018-05-13T04:14:53.734Z,16.60
2018-05-13T04:17:23.215Z,17.10
2018-05-13T04:19:50.957Z,17.10
2018-05-13T04:22:18.835Z,17.40
2018-05-13T04:24:46.570Z,17.70
2018-05-13T04:27:14.339Z,18.10
2018-05-13T04:29:42.235Z,18.50
2018-05-13T04:32:09.995Z,18.80
2018-05-13T04:34:37.775Z,19.10
2018-05-13T04:37:05.575Z,19.40
2018-05-13T04:39:33.354Z,19.80
2018-05-13T04:42:01.114Z,20.10
2018-05-13T04:44:28.975Z,20.60
2018-05-13T04:46:56.696Z,20.90
2018-05-13T04:49:24.515Z,21.20
2018-05-13T04:51:52.314Z,21.30
2018-05-13T04:54:20.035Z,21.60
2018-05-13T04:56:47.795Z,21.80
2018-05-13T04:59:15.655Z,21.90
2018-05-13T05:01:43.414Z,21.80
2018-05-13T05:04:11.135Z,21.70
2018-05-13T05:06:39.034Z,22.20
2018-05-13T05:09:06.737Z,22.50
2018-05-13T05:11:34.434Z,22.50
2018-05-13T05:14:02.214Z,22.10
2018-05-13T05:16:29.974Z,23.10
2018-05-13T05:18:57.735Z,24.10
2018-05-13T05:21:25.556Z,24.70
2018-05-13T05:23:54.436Z,25.90
2018-05-13T05:26:23.015Z,26.10
2018-05-13T05:28:53.657Z,26.10
2018-05-13T05:31:21.614Z,26.10
2018-05-13T05:33:49.594Z,26.10
2018-05-13T05:36:17.534Z,26.20
2018-05-13T05:38:45.374Z,26.60
2018-05-13T05:41:13.276Z,26.50
2018-05-13T05:43:41.155Z,26.50
2018-05-13T05:46:09.697Z,26.60
2018-05-13T05:48:39.407Z,26.70
2018-05-13T05:51:07.716Z,27.20
2018-05-13T05:53:35.616Z,27.30
2018-05-13T05:56:03.435Z,26.40
2018-05-13T05:58:31.535Z,25.50
2018-05-13T06:01:00.437Z,25.00
2018-05-13T06:03:28.395Z,24.80
2018-05-13T06:05:56.403Z,24.60
2018-05-13T06:08:24.276Z,24.10
2018-05-13T06:10:52.165Z,23.80
2018-05-13T06:13:20.177Z,23.60
2018-05-13T06:15:48.136Z,23.40
2018-05-13T06:18:16.072Z,23.10
2018-05-13T06:20:44.016Z,22.90
2018-05-13T06:23:11.896Z,22.90
2018-05-13T06:25:39.916Z,22.80
2018-05-13T06:28:08.156Z,22.80
2018-05-13T06:30:36.116Z,22.70
2018-05-13T06:33:04.857Z,22.60
2018-05-13T06:35:32.896Z,22.60
2018-05-13T06:38:01.436Z,22.50
2018-05-13T06:40:29.415Z,22.30
2018-05-13T06:42:57.475Z,22.20
2018-05-13T06:45:25.355Z,22.10
2018-05-13T06:47:53.339Z,22.20
2018-05-13T06:50:21.341Z,22.20
2018-05-13T06:52:49.640Z,22.10
2018-05-13T06:55:17.440Z,22.00
2018-05-13T06:57:45.426Z,22.10
2018-05-13T07:00:13.115Z,22.00
2018-05-13T07:02:40.950Z,22.00
2018-05-13T07:05:09.220Z,22.10
2018-05-13T07:07:37.180Z,22.00
2018-05-13T07:10:05.022Z,22.10
2018-05-13T07:12:33.500Z,22.30
2018-05-13T07:15:01.661Z,22.30
2018-05-13T07:17:29.760Z,22.30
2018-05-13T07:19:57.661Z,22.30
2018-05-13T07:22:25.903Z,22.20
2018-05-13T07:24:53.841Z,22.30
2018-05-13T07:27:22.449Z,22.30
2018-05-13T07:29:50.697Z,22.30
2018-05-13T07:32:18.484Z,22.30
2018-05-13T07:34:46.446Z,22.40
2018-05-13T07:37:14.522Z,22.30
2018-05-13T07:39:43.181Z,22.20
2018-05-13T07:42:11.201Z,22.20
2018-05-13T07:44:39.142Z,22.30
2018-05-13T07:47:07.035Z,22.30
2018-05-13T07:49:35.742Z,22.40
2018-05-13T07:52:04.061Z,22.40
2018-05-13T07:54:32.022Z,22.70
2018-05-13T07:56:59.941Z,22.90
2018-05-13T07:59:28.701Z,23.10
2018-05-13T08:01:57.148Z,23.00
2018-05-13T08:04:27.098Z,23.00
2018-05-13T08:06:55.080Z,23.20
2018-05-13T08:09:22.958Z,23.40
2018-05-13T08:11:51.259Z,23.60
2018-05-13T08:14:19.338Z,23.60
2018-05-13T08:16:47.284Z,23.80
2018-05-13T08:19:15.438Z,23.70
2018-05-13T08:21:43.646Z,23.40
2018-05-13T08:24:11.517Z,23.40
2018-05-13T08:26:40.018Z,23.60
2018-05-13T08:31:40.377Z,23.90
2018-05-13T08:34:08.437Z,24.10
2018-05-13T08:36:36.698Z,24.20
2018-05-13T08:39:04.686Z,24.20
2018-05-13T08:41:33.018Z,24.00
2018-05-13T08:44:00.978Z,23.60
2018-05-13T08:46:29.018Z,23.20
2018-05-13T08:48:57.707Z,23.40
2018-05-13T08:51:25.978Z,23.50
2018-05-13T08:53:53.960Z,23.60
2018-05-13T08:56:22.020Z,23.60
2018-05-13T08:58:50.495Z,23.50
2018-05-13T09:01:18.648Z,23.40
2018-05-13T09:03:46.710Z,23.50
2018-05-13T09:06:14.961Z,23.40
2018-05-13T09:08:42.769Z,23.10
2018-05-13T09:11:10.821Z,23.30
2018-05-13T09:13:38.659Z,23.40
2018-05-13T09:16:06.843Z,23.10
2018-05-13T09:18:35.102Z,23.00
2018-05-13T09:21:03.057Z,22.90
2018-05-13T09:23:31.844Z,22.60
2018-05-13T09:26:02.497Z,22.40
2018-05-13T09:28:30.317Z,22.30
2018-05-13T09:30:58.138Z,22.60
2018-05-13T09:33:26.201Z,22.80
2018-05-13T09:35:54.581Z,22.80
2018-05-13T09:38:22.419Z,23.00
2018-05-13T09:40:50.317Z,23.20
2018-05-13T09:43:18.277Z,23.40
2018-05-13T09:45:46.234Z,23.70
2018-05-13T09:48:14.258Z,23.80
2018-05-13T09:50:42.897Z,23.30
2018-05-13T09:53:10.760Z,23.30
2018-05-13T09:55:38.548Z,23.10
2018-05-13T09:58:06.618Z,23.00
2018-05-13T10:00:34.539Z,23.20
2018-05-13T10:03:02.537Z,23.60
2018-05-13T10:05:31.237Z,23.70
2018-05-13T10:07:59.120Z,23.60
2018-05-13T10:10:27.117Z,23.60
2018-05-13T10:12:55.265Z,23.30
2018-05-13T10:15:23.014Z,23.20
2018-05-13T10:17:51.059Z,23.40
2018-05-13T10:20:18.976Z,23.60
2018-05-13T10:22:46.937Z,23.90
2018-05-13T10:25:14.765Z,23.70
2018-05-13T10:27:42.696Z,23.50
2018-05-13T10:30:10.446Z,23.30
2018-05-13T10:32:38.498Z,23.30
2018-05-13T10:35:06.478Z,23.20
2018-05-13T10:37:34.918Z,23.30
2018-05-13T10:40:03.139Z,23.20
2018-05-13T10:42:31.181Z,23.10
2018-05-13T10:44:59.159Z,23.20
2018-05-13T10:47:27.179Z,23.30
2018-05-13T10:49:55.099Z,23.40
2018-05-13T10:52:23.018Z,23.60
2018-05-13T10:54:51.059Z,23.70
2018-05-13T10:57:18.734Z,23.80
2018-05-13T10:59:46.576Z,24.00
2018-05-13T11:02:14.640Z,24.00
2018-05-13T11:04:42.535Z,24.10
2018-05-13T11:07:10.800Z,24.20
2018-05-13T11:09:38.820Z,24.00
2018-05-13T11:12:06.739Z,23.80
2018-05-13T11:14:34.660Z,23.50
2018-05-13T11:17:02.620Z,23.30
2018-05-13T11:19:30.640Z,22.90
2018-05-13T11:21:58.539Z,22.80
2018-05-13T11:24:26.761Z,23.00
2018-05-13T11:26:55.288Z,23.30
2018-05-13T11:29:23.400Z,23.40
2018-05-13T11:31:51.498Z,23.60
2018-05-13T11:34:19.359Z,23.30
2018-05-13T11:36:47.300Z,23.00
2018-05-13T11:39:15.420Z,23.10
2018-05-13T11:41:43.899Z,23.20
2018-05-13T11:44:11.940Z,23.40
2018-05-13T11:46:40.131Z,23.40
2018-05-13T11:49:08.119Z,23.40
2018-05-13T11:51:35.980Z,23.40
2018-05-13T11:54:04.060Z,23.20
2018-05-13T11:56:32.062Z,23.10
2018-05-13T11:58:59.979Z,22.90
2018-05-13T12:01:28.040Z,23.00
2018-05-13T12:03:56.083Z,23.20
2018-05-13T12:06:24.139Z,23.10
2018-05-13T12:08:52.999Z,23.40
2018-05-13T12:11:20.899Z,23.30
2018-05-13T12:13:49.219Z,23.50
2018-05-13T12:16:17.339Z,23.60
2018-05-13T12:18:45.299Z,23.60
2018-05-13T12:21:13.498Z,23.70
2018-05-13T12:23:41.459Z,23.70
2018-05-13T12:26:09.302Z,23.70
2018-05-13T12:28:37.182Z,23.70
2018-05-13T12:31:05.439Z,23.80
2018-05-13T12:33:33.419Z,23.80
2018-05-13T12:36:01.299Z,23.70
2018-05-13T12:38:29.299Z,23.70
2018-05-13T12:40:57.516Z,23.80
2018-05-13T12:43:25.396Z,23.80
2018-05-13T12:45:53.481Z,23.90
2018-05-13T12:48:21.356Z,23.90
2018-05-13T12:50:49.456Z,23.60
2018-05-13T12:53:17.717Z,23.60
2018-05-13T12:55:45.616Z,23.60
2018-05-13T12:58:13.456Z,23.80
2018-05-13T13:00:41.838Z,23.90
2018-05-13T13:03:09.699Z,24.00
2018-05-13T13:05:37.578Z,23.80
2018-05-13T13:08:05.600Z,23.70
2018-05-13T13:10:33.818Z,23.60
2018-05-13T13:13:01.740Z,23.60
2018-05-13T13:15:29.779Z,23.60
2018-05-13T13:17:57.678Z,23.50
2018-05-13T13:20:25.697Z,23.40
2018-05-13T13:22:54.099Z,23.30
2018-05-13T13:25:22.463Z,23.30
2018-05-13T13:27:50.344Z,23.30
2018-05-13T13:30:18.194Z,23.30
2018-05-13T13:32:46.102Z,23.30
2018-05-13T13:35:13.937Z,23.30
2018-05-13T13:37:41.942Z,23.20
2018-05-13T13:40:09.818Z,23.10
2018-05-13T13:42:38.298Z,23.00
2018-05-13T13:45:06.317Z,23.00
2018-05-13T13:47:34.239Z,23.00
2018-05-13T13:50:02.238Z,23.00
2018-05-13T13:52:30.297Z,23.00
2018-05-13T13:54:58.075Z,23.00
2018-05-13T13:57:26.618Z,23.00
2018-05-13T13:59:54.695Z,22.90
2018-05-13T14:02:23.297Z,22.90
2018-05-13T14:04:51.263Z,22.90
2018-05-13T14:07:19.260Z,22.90
2018-05-13T14:09:47.964Z,23.00
2018-05-13T14:12:15.883Z,23.00
2018-05-13T14:14:44.059Z,23.10
2018-05-13T14:17:12.102Z,23.10
2018-05-13T14:19:40.763Z,22.90
2018-05-13T14:22:08.780Z,22.90
2018-05-13T14:24:37.280Z,22.90
2018-05-13T14:27:05.249Z,22.90
2018-05-13T14:29:33.360Z,22.80
2018-05-13T14:32:01.376Z,22.80
2018-05-13T14:34:29.235Z,22.80
2018-05-13T14:36:57.355Z,22.80
2018-05-13T14:39:25.715Z,22.80
2018-05-13T14:41:53.994Z,22.70
2018-05-13T14:44:22.436Z,22.70
2018-05-13T14:46:50.754Z,22.60
2018-05-13T14:49:18.894Z,22.60
2018-05-13T14:51:46.976Z,22.40
2018-05-13T14:54:15.335Z,22.20
2018-05-13T14:56:44.055Z,21.70
2018-05-13T14:59:13.876Z,21.70
2018-05-13T15:01:41.866Z,21.50
2018-05-13T15:04:09.825Z,21.20
2018-05-13T15:06:37.863Z,20.80
2018-05-13T15:09:05.823Z,20.30
2018-05-13T15:11:33.864Z,20.00
2018-05-13T15:14:01.684Z,19.90
2018-05-13T15:16:29.696Z,19.70
2018-05-13T15:18:57.705Z,19.70
2018-05-13T15:21:25.670Z,19.60
2018-05-13T15:23:53.623Z,19.40
2018-05-13T15:26:21.543Z,19.30
2018-05-13T15:28:49.544Z,19.10
2018-05-13T15:31:17.583Z,19.10
2018-05-13T15:33:45.504Z,19.10
2018-05-13T15:36:13.564Z,19.10
2018-05-13T15:38:41.684Z,19.10
2018-05-13T15:41:09.757Z,19.00
2018-05-13T15:43:37.699Z,18.90
2018-05-13T15:46:05.618Z,18.80
2018-05-13T15:48:33.697Z,18.70
2018-05-13T15:51:02.644Z,18.70
2018-05-13T15:53:30.598Z,18.70
2018-05-13T15:55:58.417Z,18.80
2018-05-13T15:58:26.717Z,18.80
2018-05-13T16:00:54.596Z,18.90
2018-05-13T16:03:22.476Z,18.90
2018-05-13T16:05:50.556Z,19.00
2018-05-13T16:08:18.457Z,18.90
2018-05-13T16:10:46.495Z,19.00
2018-05-13T16:13:14.456Z,19.00
2018-05-13T16:15:43.477Z,18.80
2018-05-13T16:18:11.357Z,18.80
2018-05-13T16:20:39.696Z,18.80
2018-05-13T16:23:07.516Z,18.70
2018-05-13T16:25:35.376Z,18.50
2018-05-13T16:28:03.356Z,18.40
2018-05-13T16:30:31.936Z,18.40
2018-05-13T16:33:00.734Z,18.00
2018-05-13T16:35:28.216Z,18.00
2018-05-13T16:37:56.116Z,17.90
2018-05-13T16:40:24.017Z,17.90
2018-05-13T16:42:52.284Z,17.80
2018-05-13T16:45:20.256Z,17.80
2018-05-13T16:47:48.376Z,17.90
2018-05-13T16:50:16.515Z,18.00
2018-05-13T16:52:44.795Z,18.10
2018-05-13T16:55:12.656Z,18.10
2018-05-13T16:57:40.614Z,18.10
2018-05-13T17:00:08.521Z,18.10
2018-05-13T17:02:36.376Z,18.10
2018-05-13T17:05:05.136Z,18.20
2018-05-13T17:07:33.203Z,18.20
2018-05-13T17:10:01.216Z,18.30
2018-05-13T17:12:29.236Z,18.30
2018-05-13T17:14:57.477Z,18.30
2018-05-13T17:17:25.532Z,18.30
2018-05-13T17:19:53.495Z,18.20
2018-05-13T17:22:21.755Z,18.10
2018-05-13T17:24:50.116Z,17.90
2018-05-13T17:27:18.035Z,17.80
2018-05-13T17:29:45.920Z,17.70
2018-05-13T17:32:13.835Z,17.60
2018-05-13T17:34:41.896Z,17.70
2018-05-13T17:37:09.938Z,17.60
2018-05-13T17:39:38.215Z,17.50
2018-05-13T17:42:06.197Z,17.50
2018-05-13T17:44:34.215Z,17.50
2018-05-13T17:47:02.175Z,17.50
2018-05-13T17:49:30.175Z,17.50
2018-05-13T17:51:58.175Z,17.50
2018-05-13T17:54:26.196Z,17.50
2018-05-13T17:56:54.216Z,17.50
2018-05-13T17:59:22.655Z,17.50
2018-05-13T18:01:50.696Z,17.40
2018-05-13T18:04:18.591Z,17.40
2018-05-13T18:06:46.538Z,17.20
2018-05-13T18:09:15.261Z,17.10
2018-05-13T18:11:43.469Z,17.10
2018-05-13T18:14:11.637Z,17.00
2018-05-13T18:16:39.512Z,16.90
2018-05-13T18:19:07.557Z,16.70
2018-05-13T18:21:35.588Z,16.50
2018-05-13T18:24:03.536Z,16.40
2018-05-13T18:26:31.596Z,16.40
2018-05-13T18:29:00.317Z,16.30
2018-05-13T18:31:28.186Z,16.20
2018-05-13T18:33:56.282Z,16.20
2018-05-13T18:36:24.340Z,16.10
2018-05-13T18:38:52.588Z,16.10
2018-05-13T18:41:20.617Z,16.20
2018-05-13T18:43:48.576Z,16.30
2018-05-13T18:46:16.477Z,16.20
2018-05-13T18:48:44.758Z,16.30
2018-05-13T18:51:12.657Z,16.30
2018-05-13T18:53:41.297Z,16.30
2018-05-13T18:56:10.895Z,16.20
2018-05-13T18:58:38.758Z,16.10
2018-05-13T19:01:06.506Z,16.10
2018-05-13T19:03:34.519Z,16.00
2018-05-13T19:06:02.640Z,15.90
2018-05-13T19:08:31.287Z,15.80
2018-05-13T19:10:59.316Z,15.80
2018-05-13T19:13:28.137Z,15.70
2018-05-13T19:15:56.218Z,15.70
2018-05-13T19:18:24.075Z,15.60
2018-05-13T19:20:51.994Z,15.60
2018-05-13T19:23:20.417Z,15.50
2018-05-13T19:25:49.296Z,15.50
2018-05-13T19:28:17.283Z,15.50
2018-05-13T19:30:45.141Z,15.50
2018-05-13T19:33:13.364Z,15.50
2018-05-13T19:35:41.199Z,15.40
2018-05-13T19:38:09.104Z,15.40
2018-05-13T19:40:37.197Z,15.30
2018-05-13T19:43:11.865Z,15.20
2018-05-13T19:45:39.783Z,15.10
2018-05-13T19:48:07.736Z,15.10
2018-05-13T19:50:35.577Z,15.00
2018-05-13T19:53:03.555Z,14.90
2018-05-13T19:55:32.140Z,14.90
2018-05-13T19:57:59.977Z,14.80
2018-05-13T20:00:28.661Z,14.80
2018-05-13T20:02:58.150Z,14.80
2018-05-13T20:05:26.143Z,14.70
2018-05-13T20:07:54.061Z,14.70
2018-05-13T20:10:22.309Z,14.70
2018-05-13T20:12:50.222Z,14.70
2018-05-13T20:15:18.262Z,14.60
2018-05-13T20:17:46.222Z,14.60
2018-05-13T20:20:14.304Z,14.50
2018-05-13T20:22:54.081Z,14.50
2018-05-13T20:25:22.059Z,14.50
2018-05-13T20:27:50.304Z,14.40
2018-05-13T20:30:18.356Z,14.40
2018-05-13T20:32:46.177Z,14.40
2018-05-13T20:35:14.108Z,14.30
2018-05-13T20:37:42.167Z,14.30
2018-05-13T20:40:10.441Z,14.30
2018-05-13T20:42:39.221Z,14.20
2018-05-13T20:45:07.400Z,14.20
2018-05-13T20:47:37.201Z,14.20
2018-05-13T20:50:05.141Z,14.20
2018-05-13T20:52:33.139Z,14.10
2018-05-13T20:55:01.080Z,14.10
2018-05-13T20:57:29.060Z,14.10
2018-05-13T20:59:57.381Z,14.00
2018-05-13T21:02:26.080Z,14.00
2018-05-13T21:04:53.941Z,14.00
2018-05-13T21:07:21.860Z,14.00
2018-05-13T21:09:49.722Z,14.10
2018-05-13T21:12:19.922Z,14.10
2018-05-13T21:14:48.821Z,14.10
2018-05-13T21:17:16.800Z,14.00
2018-05-13T21:19:44.660Z,14.00
2018-05-13T21:22:12.701Z,14.00
2018-05-13T21:24:40.599Z,14.00
2018-05-13T21:27:08.659Z,14.00
2018-05-13T21:29:36.939Z,14.00
2018-05-13T21:32:04.859Z,14.00
2018-05-13T21:34:32.838Z,14.10
2018-05-13T21:37:00.739Z,14.10
2018-05-13T21:39:28.644Z,14.10
2018-05-13T21:41:57.017Z,14.10
2018-05-13T21:44:25.176Z,14.10
2018-05-13T21:46:53.757Z,14.00
2018-05-13T21:49:21.617Z,14.00
2018-05-13T21:51:49.477Z,14.00
2018-05-13T21:54:18.137Z,14.00
2018-05-13T21:56:46.917Z,14.00
2018-05-13T21:59:14.780Z,14.00
2018-05-13T22:01:42.735Z,14.00
2018-05-13T22:04:10.556Z,14.00
2018-05-13T22:06:38.615Z,14.00
2018-05-13T22:09:06.493Z,14.10
2018-05-13T22:11:34.336Z,14.10
2018-05-13T22:14:02.257Z,14.00
2018-05-13T22:16:30.335Z,14.10
2018-05-13T22:18:58.256Z,14.10
2018-05-13T22:21:26.995Z,14.10
2018-05-13T22:23:56.737Z,14.10
2018-05-13T22:26:25.135Z,14.10
2018-05-13T22:28:53.254Z,14.00
2018-05-13T22:31:21.435Z,14.00
2018-05-13T22:33:49.235Z,14.00
2018-05-13T22:36:17.295Z,14.00
2018-05-13T22:38:45.217Z,14.00
2018-05-13T22:41:12.596Z,14.00
2018-05-13T22:43:40.516Z,14.00
2018-05-13T22:46:08.856Z,14.00
2018-05-13T22:48:36.919Z,14.00
2018-05-13T22:51:04.818Z,14.10
2018-05-13T22:53:32.676Z,14.00
2018-05-13T22:56:00.975Z,14.00
2018-05-13T22:58:29.059Z,13.90
2018-05-13T23:00:57.175Z,14.00
2018-05-13T23:03:24.955Z,14.00
2018-05-13T23:05:53.002Z,14.00
2018-05-13T23:08:20.796Z,14.00
2018-05-13T23:10:48.815Z,14.00
2018-05-13T23:13:17.016Z,14.00
2018-05-13T23:15:44.861Z,14.00
2018-05-13T23:18:12.796Z,14.00
2018-05-13T23:20:40.716Z,14.00
2018-05-13T23:23:08.676Z,14.10
2018-05-13T23:25:37.816Z,14.00
2018-05-13T23:28:06.033Z,14.00
2018-05-13T23:30:34.280Z,13.90
2018-05-13T23:33:02.096Z,13.90
2018-05-13T23:35:30.037Z,13.90
2018-05-13T23:37:57.976Z,13.90
2018-05-13T23:40:25.876Z,14.00
2018-05-13T23:42:53.816Z,14.00
2018-05-13T23:45:23.116Z,14.00
2018-05-13T23:47:51.475Z,14.00
2018-05-13T23:50:19.456Z,13.90
2018-05-13T23:52:47.276Z,13.80
2018-05-13T23:55:15.176Z,13.80
2018-05-13T23:57:43.095Z,13.80
